»·PEaware :: UAL681 KMRY-KRNO

UAL681 :: KMRY-KRNO

FLIGHT INFORMATION

Flight Status: Arrived
Operator:
United Airlines
More flights by this operator :: More flights under this callsign
Pilot: Klaus K. (15267)
Aircraft: BOEING 737-200
(B732)
More flights by this aircraft type
Origin: KMRY Monterey Peninsula
United States
Destination: KRNO Reno/Tahoe Intl
United States
More flights between these airports :: More routes between these airports
Route: +MRY4 SNS SJC SAC SIER3
File this flight plan on PilotEdge
Remarks: / A
Altitude:
(Current/Filed)
27,000ft
Speed:
(Current/Filed)
400kts
Departed: 05-Feb-18 02:12 PM
Arrived: 05-Feb-18 02:58 PM
Distance/Time
Traveled:
200nm/0:46
Distance/Time
To Go:
Arrived

Flight Plot

Page will automatically refresh every two minutes.

Flight plan parsing failed; only flown route is shown


Map Options




Map Legend


Flown Route
Filed Route
Departure Airport
Arrival Airport
Navaid (VOR, NDB)
Fix

Horizontal Profiles

Position Reports

Time Latitude Longitude Heading Altitude Ground
Speed
05-Feb-18 13:47 36.587826 -121.851011 232 175ft 0kts
05-Feb-18 13:48 36.587826 -121.851011 232 175ft 0kts
05-Feb-18 13:49 36.587826 -121.851011 232 175ft 0kts
05-Feb-18 13:50 36.587826 -121.851011 232 175ft 0kts
05-Feb-18 13:51 36.587826 -121.851011 232 175ft 0kts
05-Feb-18 13:52 36.587826 -121.851011 232 175ft 0kts
05-Feb-18 13:53 36.587826 -121.851011 232 175ft 0kts
05-Feb-18 13:54 36.587826 -121.851011 232 175ft 0kts
05-Feb-18 13:55 36.587826 -121.851011 232 175ft 0kts
05-Feb-18 13:56 36.587826 -121.851011 232 175ft 0kts
05-Feb-18 13:57 36.587826 -121.851011 232 175ft 0kts
05-Feb-18 13:58 36.587826 -121.851011 232 175ft 0kts
05-Feb-18 13:59 36.587826 -121.851011 232 175ft 0kts
05-Feb-18 14:00 36.587826 -121.851011 232 175ft 0kts
05-Feb-18 14:01 36.587826 -121.851011 232 175ft 0kts
05-Feb-18 14:02 36.587826 -121.851011 232 175ft 0kts
05-Feb-18 14:03 36.587826 -121.851011 232 175ft 0kts
05-Feb-18 14:04 36.587826 -121.851011 232 175ft 0kts
05-Feb-18 14:06 36.587826 -121.851011 232 175ft 0kts
05-Feb-18 14:07 36.588267 -121.850497 186 175ft 0kts
05-Feb-18 14:08 36.588267 -121.850497 186 175ft 0kts
05-Feb-18 14:09 36.588267 -121.850497 186 175ft 0kts
05-Feb-18 14:10 36.588267 -121.850497 186 175ft 0kts
05-Feb-18 14:11 36.588267 -121.850497 186 175ft 0kts
05-Feb-18 14:12 36.588267 -121.850497 186 175ft 0kts
05-Feb-18 14:13 36.586714 -121.846175 119 175ft 22kts
05-Feb-18 14:14 36.584417 -121.839662 113 175ft 19kts
05-Feb-18 14:15 36.584003 -121.838437 112 175ft 5kts
05-Feb-18 14:16 36.582903 -121.835120 103 175ft 0kts
05-Feb-18 14:17 36.582903 -121.835120 103 175ft 0kts
05-Feb-18 14:18 36.582855 -121.834103 83 175ft 9kts
05-Feb-18 14:19 36.586648 -121.843398 292 176ft 132kts
05-Feb-18 14:20 36.615110 -121.881840 341 2505ft 202kts
05-Feb-18 14:21 36.671695 -121.901962 341 5520ft 227kts
05-Feb-18 14:22 36.736310 -121.926010 342 7847ft 246kts
05-Feb-18 14:23 36.801495 -121.946807 345 10133ft 251kts
05-Feb-18 14:24 36.873575 -121.937986 5 12477ft 272kts
05-Feb-18 14:25 36.949936 -121.922410 5 14705ft 289kts
05-Feb-18 14:26 37.026332 -121.899627 8 16678ft 303kts
05-Feb-18 14:27 37.106322 -121.878330 7 17680ft 337kts
05-Feb-18 14:28 37.184299 -121.859194 6 19225ft 344kts
05-Feb-18 14:29 37.279055 -121.836351 6 20975ft 354kts
05-Feb-18 14:30 37.376651 -121.812893 6 22558ft 362kts
05-Feb-18 14:31 37.475402 -121.789138 6 23992ft 369kts
05-Feb-18 14:32 37.577348 -121.764541 6 25157ft 380kts
05-Feb-18 14:33 37.682090 -121.739161 7 26090ft 390kts
05-Feb-18 14:34 37.790181 -121.712896 7 26900ft 399kts
05-Feb-18 14:35 37.900274 -121.686079 7 27024ft 414kts
05-Feb-18 14:36 38.014600 -121.658120 7 27022ft 427kts
05-Feb-18 14:37 38.125497 -121.630976 7 27025ft 430kts
05-Feb-18 14:38 38.240956 -121.602743 7 27022ft 420kts
05-Feb-18 14:39 38.353952 -121.574816 7 27022ft 412kts
05-Feb-18 14:40 38.465010 -121.545221 18 27008ft 410kts
05-Feb-18 14:41 38.543209 -121.439150 45 27025ft 421kts
05-Feb-18 14:42 38.615411 -121.335714 43 27045ft 419kts
05-Feb-18 14:42 38.679332 -121.249579 41 27046ft 418kts
05-Feb-18 14:44 38.773592 -121.126850 40 27045ft 418kts
05-Feb-18 14:44 38.841409 -121.038939 40 27045ft 418kts
05-Feb-18 14:46 38.936666 -120.915185 40 26705ft 417kts
05-Feb-18 14:47 39.017154 -120.810075 40 25717ft 412kts
05-Feb-18 14:47 39.083207 -120.723769 40 24764ft 405kts
05-Feb-18 14:48 39.155508 -120.630060 40 23631ft 397kts
05-Feb-18 14:49 39.231774 -120.530127 40 22176ft 388kts
05-Feb-18 14:50 39.306291 -120.431666 41 20722ft 378kts
05-Feb-18 14:51 39.374638 -120.340360 42 18703ft 351kts
05-Feb-18 14:52 39.437176 -120.253514 43 16628ft 319kts
05-Feb-18 14:53 39.492797 -120.172859 43 14893ft 291kts
05-Feb-18 14:54 39.546878 -120.097933 43 12945ft 277kts
05-Feb-18 14:55 39.598363 -120.030781 43 11314ft 260kts
05-Feb-18 14:56 39.648221 -119.965498 43 10248ft 253kts
05-Feb-18 14:57 39.696363 -119.902361 43 9868ft 232kts
05-Feb-18 14:58 39.735436 -119.846018 71 9564ft 202kts
05-Feb-18 14:59 39.701074 -119.789786 143 8418ft 212kts
05-Feb-18 15:00 39.649545 -119.769195 178 7439ft 178kts
05-Feb-18 15:01 39.602605 -119.768978 178 6393ft 171kts
05-Feb-18 15:02 39.558877 -119.769173 180 5419ft 150kts
05-Feb-18 15:03 39.517173 -119.769172 180 4599ft 149kts
05-Feb-18 15:04 39.492608 -119.770436 252 4420ft 11kts
05-Feb-18 15:05 39.492562 -119.770984 272 4420ft 9kts

Navigation Log

Ident Type
Flight plan parsing failed, navigation log unavailable